sensor_id;sensor_type;location;lat;lon;timestamp;P1;durP1;ratioP1;P2;durP2;ratioP2
4430;SDS011;2228;48.140;11.488;2023-11-19T00:00:47;5.63;;;3.17;;
4430;SDS011;2228;48.140;11.488;2023-11-19T00:03:14;4.95;;;2.85;;
4430;SDS011;2228;48.140;11.488;2023-11-19T00:05:42;6.10;;;4.10;;
4430;SDS011;2228;48.140;11.488;2023-11-19T00:08:10;5.07;;;3.47;;
4430;SDS011;2228;48.140;11.488;2023-11-19T00:10:37;11.32;;;4.57;;
4430;SDS011;2228;48.140;11.488;2023-11-19T00:13:04;4.15;;;2.90;;
4430;SDS011;2228;48.140;11.488;2023-11-19T00:15:33;6.07;;;3.30;;
4430;SDS011;2228;48.140;11.488;2023-11-19T00:18:01;3.58;;;2.95;;
4430;SDS011;2228;48.140;11.488;2023-11-19T00:20:30;4.82;;;3.28;;
4430;SDS011;2228;48.140;11.488;2023-11-19T00:23:00;4.05;;;2.90;;
4430;SDS011;2228;48.140;11.488;2023-11-19T00:25:28;5.40;;;3.20;;
4430;SDS011;2228;48.140;11.488;2023-11-19T00:27:56;4.25;;;3.20;;
4430;SDS011;2228;48.140;11.488;2023-11-19T00:30:26;5.30;;;2.83;;
4430;SDS011;2228;48.140;11.488;2023-11-19T00:32:56;7.95;;;3.05;;
4430;SDS011;2228;48.140;11.488;2023-11-19T00:35:25;5.32;;;3.05;;
4430;SDS011;2228;48.140;11.488;2023-11-19T00:37:54;3.95;;;2.90;;
4430;SDS011;2228;48.140;11.488;2023-11-19T00:40:21;5.20;;;3.00;;
4430;SDS011;2228;48.140;11.488;2023-11-19T00:42:48;4.07;;;2.75;;
4430;SDS011;2228;48.140;11.488;2023-11-19T00:45:17;7.35;;;3.35;;
4430;SDS011;2228;48.140;11.488;2023-11-19T00:47:44;6.57;;;3.20;;
4430;SDS011;2228;48.140;11.488;2023-11-19T00:50:11;7.27;;;3.50;;
4430;SDS011;2228;48.140;11.488;2023-11-19T00:52:40;5.50;;;3.30;;
4430;SDS011;2228;48.140;11.488;2023-11-19T00:55:08;7.28;;;3.60;;
4430;SDS011;2228;48.140;11.488;2023-11-19T00:57:36;7.20;;;3.30;;
4430;SDS011;2228;48.140;11.488;2023-11-19T01:00:04;6.35;;;3.50;;
4430;SDS011;2228;48.140;11.488;2023-11-19T01:02:43;5.97;;;3.20;;
4430;SDS011;2228;48.140;11.488;2023-11-19T01:05:11;5.57;;;3.10;;
4430;SDS011;2228;48.140;11.488;2023-11-19T01:07:42;7.35;;;3.20;;
4430;SDS011;2228;48.140;11.488;2023-11-19T01:10:09;6.22;;;2.95;;
4430;SDS011;2228;48.140;11.488;2023-11-19T01:12:37;5.28;;;3.10;;
4430;SDS011;2228;48.140;11.488;2023-11-19T01:15:05;4.40;;;3.00;;
4430;SDS011;2228;48.140;11.488;2023-11-19T01:17:32;5.45;;;3.15;;
4430;SDS011;2228;48.140;11.488;2023-11-19T01:20:01;4.97;;;3.00;;
4430;SDS011;2228;48.140;11.488;2023-11-19T01:22:31;3.72;;;2.35;;
4430;SDS011;2228;48.140;11.488;2023-11-19T01:25:01;4.55;;;3.03;;
4430;SDS011;2228;48.140;11.488;2023-11-19T01:27:30;3.60;;;2.35;;
4430;SDS011;2228;48.140;11.488;2023-11-19T01:29:59;3.20;;;2.40;;
4430;SDS011;2228;48.140;11.488;2023-11-19T01:32:28;2.85;;;1.95;;
4430;SDS011;2228;48.140;11.488;2023-11-19T01:34:55;4.10;;;2.38;;
4430;SDS011;2228;48.140;11.488;2023-11-19T01:37:23;3.35;;;2.30;;
4430;SDS011;2228;48.140;11.488;2023-11-19T01:39:50;3.30;;;2.00;;
4430;SDS011;2228;48.140;11.488;2023-11-19T01:42:18;6.50;;;2.80;;
4430;SDS011;2228;48.140;11.488;2023-11-19T01:44:54;4.80;;;3.05;;
4430;SDS011;2228;48.140;11.488;2023-11-19T01:47:23;4.35;;;2.28;;
4430;SDS011;2228;48.140;11.488;2023-11-19T01:49:51;3.70;;;2.58;;
4430;SDS011;2228;48.140;11.488;2023-11-19T01:52:18;6.72;;;2.03;;
4430;SDS011;2228;48.140;11.488;2023-11-19T01:54:46;3.65;;;2.35;;
4430;SDS011;2228;48.140;11.488;2023-11-19T01:57:13;3.05;;;2.17;;
4430;SDS011;2228;48.140;11.488;2023-11-19T01:59:42;4.90;;;1.90;;
4430;SDS011;2228;48.140;11.488;2023-11-19T02:02:10;6.25;;;2.13;;
4430;SDS011;2228;48.140;11.488;2023-11-19T02:04:37;3.53;;;2.20;;
4430;SDS011;2228;48.140;11.488;2023-11-19T02:07:06;4.67;;;2.13;;
4430;SDS011;2228;48.140;11.488;2023-11-19T02:09:34;3.58;;;2.28;;
4430;SDS011;2228;48.140;11.488;2023-11-19T02:12:01;3.20;;;2.03;;
4430;SDS011;2228;48.140;11.488;2023-11-19T02:14:28;3.60;;;2.30;;
4430;SDS011;2228;48.140;11.488;2023-11-19T02:16:57;2.20;;;1.60;;
4430;SDS011;2228;48.140;11.488;2023-11-19T02:19:24;4.38;;;1.80;;
4430;SDS011;2228;48.140;11.488;2023-11-19T02:21:51;4.97;;;1.60;;
4430;SDS011;2228;48.140;11.488;2023-11-19T02:24:18;1.85;;;1.40;;
4430;SDS011;2228;48.140;11.488;2023-11-19T02:26:50;3.00;;;1.30;;
4430;SDS011;2228;48.140;11.488;2023-11-19T02:29:25;2.35;;;1.40;;
4430;SDS011;2228;48.140;11.488;2023-11-19T02:31:52;2.95;;;1.60;;
4430;SDS011;2228;48.140;11.488;2023-11-19T02:34:20;2.03;;;1.10;;
4430;SDS011;2228;48.140;11.488;2023-11-19T02:36:47;3.15;;;1.70;;
4430;SDS011;2228;48.140;11.488;2023-11-19T02:39:15;2.08;;;1.30;;
4430;SDS011;2228;48.140;11.488;2023-11-19T02:41:46;4.00;;;1.80;;
4430;SDS011;2228;48.140;11.488;2023-11-19T02:44:16;1.60;;;1.10;;
4430;SDS011;2228;48.140;11.488;2023-11-19T02:46:45;2.40;;;1.20;;
4430;SDS011;2228;48.140;11.488;2023-11-19T02:49:13;2.67;;;1.20;;
4430;SDS011;2228;48.140;11.488;2023-11-19T02:51:40;2.70;;;1.10;;
4430;SDS011;2228;48.140;11.488;2023-11-19T02:54:08;1.50;;;1.20;;
4430;SDS011;2228;48.140;11.488;2023-11-19T02:56:35;1.77;;;1.40;;
4430;SDS011;2228;48.140;11.488;2023-11-19T02:59:04;1.95;;;1.30;;
4430;SDS011;2228;48.140;11.488;2023-11-19T03:01:40;1.90;;;1.20;;
4430;SDS011;2228;48.140;11.488;2023-11-19T03:04:10;1.40;;;0.95;;
4430;SDS011;2228;48.140;11.488;2023-11-19T03:06:42;1.20;;;1.10;;
4430;SDS011;2228;48.140;11.488;2023-11-19T03:09:09;2.70;;;1.10;;
4430;SDS011;2228;48.140;11.488;2023-11-19T03:11:36;1.30;;;0.90;;
4430;SDS011;2228;48.140;11.488;2023-11-19T03:14:03;1.50;;;0.90;;
4430;SDS011;2228;48.140;11.488;2023-11-19T03:16:30;1.90;;;0.80;;
4430;SDS011;2228;48.140;11.488;2023-11-19T03:18:57;2.30;;;0.80;;
4430;SDS011;2228;48.140;11.488;2023-11-19T03:21:31;1.60;;;0.80;;
4430;SDS011;2228;48.140;11.488;2023-11-19T03:23:58;2.00;;;0.80;;
4430;SDS011;2228;48.140;11.488;2023-11-19T03:26:25;1.45;;;0.80;;
4430;SDS011;2228;48.140;11.488;2023-11-19T03:28:53;1.60;;;0.83;;
4430;SDS011;2228;48.140;11.488;2023-11-19T03:31:20;1.40;;;0.70;;
4430;SDS011;2228;48.140;11.488;2023-11-19T03:33:48;2.10;;;0.70;;
4430;SDS011;2228;48.140;11.488;2023-11-19T03:36:14;1.20;;;0.75;;
4430;SDS011;2228;48.140;11.488;2023-11-19T03:38:43;1.70;;;0.70;;
4430;SDS011;2228;48.140;11.488;2023-11-19T03:41:10;0.90;;;0.77;;
4430;SDS011;2228;48.140;11.488;2023-11-19T03:43:37;1.40;;;0.70;;
4430;SDS011;2228;48.140;11.488;2023-11-19T03:46:05;2.50;;;0.70;;
4430;SDS011;2228;48.140;11.488;2023-11-19T03:48:41;0.77;;;0.68;;
4430;SDS011;2228;48.140;11.488;2023-11-19T03:51:08;0.70;;;0.60;;
4430;SDS011;2228;48.140;11.488;2023-11-19T03:53:37;1.00;;;0.60;;
4430;SDS011;2228;48.140;11.488;2023-11-19T03:56:05;0.90;;;0.70;;
4430;SDS011;2228;48.140;11.488;2023-11-19T03:58:34;0.90;;;0.70;;
4430;SDS011;2228;48.140;11.488;2023-11-19T04:01:03;1.10;;;0.70;;
4430;SDS011;2228;48.140;11.488;2023-11-19T04:03:30;1.10;;;0.70;;
4430;SDS011;2228;48.140;11.488;2023-11-19T04:05:59;1.10;;;0.70;;
4430;SDS011;2228;48.140;11.488;2023-11-19T04:08:26;1.60;;;0.70;;
4430;SDS011;2228;48.140;11.488;2023-11-19T04:10:54;1.40;;;0.60;;
4430;SDS011;2228;48.140;11.488;2023-11-19T04:13:23;1.20;;;0.60;;
4430;SDS011;2228;48.140;11.488;2023-11-19T04:15:51;1.10;;;0.70;;
4430;SDS011;2228;48.140;11.488;2023-11-19T04:18:18;2.28;;;0.60;;
4430;SDS011;2228;48.140;11.488;2023-11-19T04:20:46;1.50;;;0.70;;
4430;SDS011;2228;48.140;11.488;2023-11-19T04:23:16;2.08;;;0.70;;
4430;SDS011;2228;48.140;11.488;2023-11-19T04:25:44;2.08;;;0.70;;
4430;SDS011;2228;48.140;11.488;2023-11-19T04:28:12;2.20;;;0.70;;
4430;SDS011;2228;48.140;11.488;2023-11-19T04:30:42;1.00;;;0.75;;
4430;SDS011;2228;48.140;11.488;2023-11-19T04:33:10;1.20;;;0.95;;
4430;SDS011;2228;48.140;11.488;2023-11-19T04:35:37;1.10;;;0.70;;
4430;SDS011;2228;48.140;11.488;2023-11-19T04:38:07;0.80;;;0.60;;
4430;SDS011;2228;48.140;11.488;2023-11-19T04:40:34;0.90;;;0.70;;
4430;SDS011;2228;48.140;11.488;2023-11-19T04:43:01;1.90;;;0.70;;
4430;SDS011;2228;48.140;11.488;2023-11-19T04:45:28;1.30;;;0.60;;
4430;SDS011;2228;48.140;11.488;2023-11-19T04:47:57;0.90;;;0.70;;
4430;SDS011;2228;48.140;11.488;2023-11-19T04:50:25;3.00;;;0.60;;
4430;SDS011;2228;48.140;11.488;2023-11-19T04:52:53;1.40;;;0.70;;
4430;SDS011;2228;48.140;11.488;2023-11-19T04:55:21;1.10;;;0.70;;
4430;SDS011;2228;48.140;11.488;2023-11-19T04:57:49;0.80;;;0.60;;
4430;SDS011;2228;48.140;11.488;2023-11-19T05:00:17;1.60;;;0.70;;
4430;SDS011;2228;48.140;11.488;2023-11-19T05:02:44;1.00;;;0.70;;
4430;SDS011;2228;48.140;11.488;2023-11-19T05:05:19;2.00;;;0.60;;
4430;SDS011;2228;48.140;11.488;2023-11-19T05:07:46;0.98;;;0.60;;
4430;SDS011;2228;48.140;11.488;2023-11-19T05:10:14;1.10;;;0.60;;
4430;SDS011;2228;48.140;11.488;2023-11-19T05:12:42;0.90;;;0.70;;
4430;SDS011;2228;48.140;11.488;2023-11-19T05:15:10;1.00;;;0.60;;
4430;SDS011;2228;48.140;11.488;2023-11-19T05:17:40;2.22;;;0.73;;
4430;SDS011;2228;48.140;11.488;2023-11-19T05:20:08;1.00;;;0.80;;
4430;SDS011;2228;48.140;11.488;2023-11-19T05:22:40;0.80;;;0.70;;
4430;SDS011;2228;48.140;11.488;2023-11-19T05:25:08;0.95;;;0.73;;
4430;SDS011;2228;48.140;11.488;2023-11-19T05:27:49;0.90;;;0.70;;
4430;SDS011;2228;48.140;11.488;2023-11-19T05:30:17;0.80;;;0.70;;
4430;SDS011;2228;48.140;11.488;2023-11-19T05:32:45;1.30;;;0.80;;
4430;SDS011;2228;48.140;11.488;2023-11-19T05:35:13;1.02;;;0.70;;
4430;SDS011;2228;48.140;11.488;2023-11-19T05:37:43;1.60;;;0.70;;
4430;SDS011;2228;48.140;11.488;2023-11-19T05:40:10;1.30;;;0.70;;
4430;SDS011;2228;48.140;11.488;2023-11-19T06:58:17;2.00;;;0.60;;
4430;SDS011;2228;48.140;11.488;2023-11-19T07:00:44;1.13;;;0.60;;
4430;SDS011;2228;48.140;11.488;2023-11-19T07:03:12;0.70;;;0.60;;
4430;SDS011;2228;48.140;11.488;2023-11-19T07:05:39;0.90;;;0.70;;
4430;SDS011;2228;48.140;11.488;2023-11-19T07:08:06;0.80;;;0.60;;
4430;SDS011;2228;48.140;11.488;2023-11-19T07:10:33;0.80;;;0.60;;
4430;SDS011;2228;48.140;11.488;2023-11-19T07:13:00;0.80;;;0.60;;
4430;SDS011;2228;48.140;11.488;2023-11-19T07:15:29;0.80;;;0.60;;
4430;SDS011;2228;48.140;11.488;2023-11-19T07:17:56;0.60;;;0.50;;
4430;SDS011;2228;48.140;11.488;2023-11-19T07:20:24;1.20;;;0.70;;
4430;SDS011;2228;48.140;11.488;2023-11-19T07:22:52;0.80;;;0.60;;
4430;SDS011;2228;48.140;11.488;2023-11-19T07:25:20;1.10;;;0.60;;
4430;SDS011;2228;48.140;11.488;2023-11-19T07:27:47;0.70;;;0.50;;
4430;SDS011;2228;48.140;11.488;2023-11-19T07:30:14;1.10;;;0.60;;
4430;SDS011;2228;48.140;11.488;2023-11-19T07:32:44;0.60;;;0.50;;
4430;SDS011;2228;48.140;11.488;2023-11-19T07:35:11;0.70;;;0.50;;
4430;SDS011;2228;48.140;11.488;2023-11-19T07:37:38;0.60;;;0.50;;
4430;SDS011;2228;48.140;11.488;2023-11-19T07:40:06;0.70;;;0.50;;
4430;SDS011;2228;48.140;11.488;2023-11-19T07:42:33;0.80;;;0.50;;
4430;SDS011;2228;48.140;11.488;2023-11-19T07:45:00;0.70;;;0.50;;
4430;SDS011;2228;48.140;11.488;2023-11-19T07:47:27;3.50;;;0.70;;
4430;SDS011;2228;48.140;11.488;2023-11-19T07:49:56;1.25;;;0.77;;
4430;SDS011;2228;48.140;11.488;2023-11-19T07:52:23;0.90;;;0.60;;
4430;SDS011;2228;48.140;11.488;2023-11-19T07:54:50;1.40;;;0.60;;
4430;SDS011;2228;48.140;11.488;2023-11-19T07:57:17;1.90;;;1.40;;
4430;SDS011;2228;48.140;11.488;2023-11-19T07:59:43;0.80;;;0.60;;
4430;SDS011;2228;48.140;11.488;2023-11-19T08:02:11;1.20;;;0.70;;
4430;SDS011;2228;48.140;11.488;2023-11-19T08:04:38;0.70;;;0.60;;
4430;SDS011;2228;48.140;11.488;2023-11-19T08:07:11;0.70;;;0.60;;
4430;SDS011;2228;48.140;11.488;2023-11-19T08:09:38;1.20;;;0.50;;
4430;SDS011;2228;48.140;11.488;2023-11-19T08:12:05;1.88;;;0.57;;
4430;SDS011;2228;48.140;11.488;2023-11-19T08:14:34;0.68;;;0.50;;
4430;SDS011;2228;48.140;11.488;2023-11-19T08:17:02;0.60;;;0.50;;
4430;SDS011;2228;48.140;11.488;2023-11-19T08:19:29;1.20;;;0.60;;
4430;SDS011;2228;48.140;11.488;2023-11-19T08:21:56;0.68;;;0.50;;
4430;SDS011;2228;48.140;11.488;2023-11-19T08:24:24;0.70;;;0.50;;
4430;SDS011;2228;48.140;11.488;2023-11-19T08:26:51;3.40;;;0.50;;
4430;SDS011;2228;48.140;11.488;2023-11-19T08:29:18;0.70;;;0.50;;
4430;SDS011;2228;48.140;11.488;2023-11-19T08:31:46;0.70;;;0.50;;
4430;SDS011;2228;48.140;11.488;2023-11-19T08:34:13;1.20;;;0.50;;
4430;SDS011;2228;48.140;11.488;2023-11-19T08:36:40;1.50;;;0.88;;
4430;SDS011;2228;48.140;11.488;2023-11-19T08:39:07;3.20;;;1.10;;
4430;SDS011;2228;48.140;11.488;2023-11-19T08:41:36;1.20;;;0.70;;
4430;SDS011;2228;48.140;11.488;2023-11-19T08:44:05;1.15;;;0.73;;
4430;SDS011;2228;48.140;11.488;2023-11-19T08:46:32;1.08;;;0.60;;
4430;SDS011;2228;48.140;11.488;2023-11-19T08:48:59;0.90;;;0.70;;
4430;SDS011;2228;48.140;11.488;2023-11-19T08:51:27;1.80;;;0.80;;
4430;SDS011;2228;48.140;11.488;2023-11-19T08:53:54;0.80;;;0.70;;
4430;SDS011;2228;48.140;11.488;2023-11-19T08:56:23;1.00;;;0.70;;
4430;SDS011;2228;48.140;11.488;2023-11-19T08:58:51;1.20;;;0.50;;
4430;SDS011;2228;48.140;11.488;2023-11-19T09:01:18;1.02;;;0.60;;
4430;SDS011;2228;48.140;11.488;2023-11-19T09:03:45;1.20;;;0.60;;
4430;SDS011;2228;48.140;11.488;2023-11-19T09:06:12;1.70;;;0.50;;
4430;SDS011;2228;48.140;11.488;2023-11-19T09:08:39;1.10;;;0.60;;
4430;SDS011;2228;48.140;11.488;2023-11-19T09:11:06;1.45;;;0.60;;
4430;SDS011;2228;48.140;11.488;2023-11-19T09:13:34;1.60;;;0.80;;
4430;SDS011;2228;48.140;11.488;2023-11-19T09:16:02;1.70;;;0.60;;
4430;SDS011;2228;48.140;11.488;2023-11-19T09:18:30;0.85;;;0.60;;
4430;SDS011;2228;48.140;11.488;2023-11-19T09:20:57;0.70;;;0.50;;
4430;SDS011;2228;48.140;11.488;2023-11-19T09:23:24;1.30;;;0.60;;
4430;SDS011;2228;48.140;11.488;2023-11-19T09:25:53;0.70;;;0.50;;
4430;SDS011;2228;48.140;11.488;2023-11-19T09:28:20;0.70;;;0.50;;
4430;SDS011;2228;48.140;11.488;2023-11-19T09:30:47;0.98;;;0.70;;
4430;SDS011;2228;48.140;11.488;2023-11-19T09:33:18;1.63;;;0.70;;
4430;SDS011;2228;48.140;11.488;2023-11-19T09:35:45;0.85;;;0.52;;
4430;SDS011;2228;48.140;11.488;2023-11-19T09:38:14;2.50;;;0.57;;
4430;SDS011;2228;48.140;11.488;2023-11-19T09:40:42;0.88;;;0.60;;
4430;SDS011;2228;48.140;11.488;2023-11-19T09:43:09;0.70;;;0.50;;
4430;SDS011;2228;48.140;11.488;2023-11-19T09:45:39;1.95;;;0.75;;
4430;SDS011;2228;48.140;11.488;2023-11-19T09:48:15;1.38;;;0.80;;
4430;SDS011;2228;48.140;11.488;2023-11-19T09:50:45;2.20;;;0.60;;
4430;SDS011;2228;48.140;11.488;2023-11-19T09:53:14;0.80;;;0.60;;
4430;SDS011;2228;48.140;11.488;2023-11-19T09:55:42;0.77;;;0.60;;
4430;SDS011;2228;48.140;11.488;2023-11-19T09:58:09;1.70;;;0.70;;
4430;SDS011;2228;48.140;11.488;2023-11-19T10:00:38;2.55;;;0.75;;
4430;SDS011;2228;48.140;11.488;2023-11-19T10:03:06;0.80;;;0.60;;
4430;SDS011;2228;48.140;11.488;2023-11-19T10:05:36;0.80;;;0.60;;
4430;SDS011;2228;48.140;11.488;2023-11-19T10:08:17;1.20;;;0.60;;
4430;SDS011;2228;48.140;11.488;2023-11-19T10:10:45;1.20;;;0.60;;
4430;SDS011;2228;48.140;11.488;2023-11-19T10:13:12;1.67;;;0.70;;
4430;SDS011;2228;48.140;11.488;2023-11-19T10:15:39;1.30;;;0.70;;
4430;SDS011;2228;48.140;11.488;2023-11-19T10:18:07;1.10;;;0.60;;
4430;SDS011;2228;48.140;11.488;2023-11-19T10:20:37;0.75;;;0.57;;
4430;SDS011;2228;48.140;11.488;2023-11-19T10:23:06;1.00;;;0.90;;
4430;SDS011;2228;48.140;11.488;2023-11-19T10:25:34;0.70;;;0.60;;
4430;SDS011;2228;48.140;11.488;2023-11-19T10:28:01;1.08;;;0.50;;
4430;SDS011;2228;48.140;11.488;2023-11-19T10:30:29;1.70;;;0.80;;
4430;SDS011;2228;48.140;11.488;2023-11-19T10:33:05;1.30;;;0.60;;
4430;SDS011;2228;48.140;11.488;2023-11-19T10:35:33;1.60;;;0.70;;
4430;SDS011;2228;48.140;11.488;2023-11-19T10:38:02;1.52;;;0.60;;
4430;SDS011;2228;48.140;11.488;2023-11-19T10:40:40;0.60;;;0.50;;
4430;SDS011;2228;48.140;11.488;2023-11-19T10:43:08;0.70;;;0.50;;
4430;SDS011;2228;48.140;11.488;2023-11-19T10:45:35;2.00;;;0.70;;
4430;SDS011;2228;48.140;11.488;2023-11-19T10:48:02;0.93;;;0.50;;
4430;SDS011;2228;48.140;11.488;2023-11-19T10:50:32;0.80;;;0.60;;
4430;SDS011;2228;48.140;11.488;2023-11-19T10:53:15;1.40;;;0.80;;
4430;SDS011;2228;48.140;11.488;2023-11-19T10:55:45;1.80;;;0.60;;
4430;SDS011;2228;48.140;11.488;2023-11-19T10:58:15;0.70;;;0.50;;
4430;SDS011;2228;48.140;11.488;2023-11-19T11:00:43;1.70;;;0.80;;
4430;SDS011;2228;48.140;11.488;2023-11-19T11:03:12;0.70;;;0.50;;
4430;SDS011;2228;48.140;11.488;2023-11-19T11:05:43;0.70;;;0.50;;
4430;SDS011;2228;48.140;11.488;2023-11-19T11:08:15;1.00;;;0.50;;
4430;SDS011;2228;48.140;11.488;2023-11-19T11:10:43;0.70;;;0.57;;
4430;SDS011;2228;48.140;11.488;2023-11-19T11:13:11;1.05;;;0.68;;
4430;SDS011;2228;48.140;11.488;2023-11-19T11:15:40;0.70;;;0.50;;
4430;SDS011;2228;48.140;11.488;2023-11-19T11:18:08;0.70;;;0.50;;
4430;SDS011;2228;48.140;11.488;2023-11-19T11:20:35;0.70;;;0.50;;
4430;SDS011;2228;48.140;11.488;2023-11-19T11:26:05;0.70;;;0.50;;
4430;SDS011;2228;48.140;11.488;2023-11-19T11:28:46;0.70;;;0.50;;
4430;SDS011;2228;48.140;11.488;2023-11-19T11:31:25;1.50;;;0.50;;
4430;SDS011;2228;48.140;11.488;2023-11-19T11:34:09;0.70;;;0.50;;
4430;SDS011;2228;48.140;11.488;2023-11-19T11:36:53;1.00;;;0.50;;
4430;SDS011;2228;48.140;11.488;2023-11-19T11:39:30;0.70;;;0.47;;
4430;SDS011;2228;48.140;11.488;2023-11-19T11:44:59;0.70;;;0.50;;
4430;SDS011;2228;48.140;11.488;2023-11-19T11:50:28;1.10;;;0.60;;
4430;SDS011;2228;48.140;11.488;2023-11-19T11:55:56;5.00;;;0.50;;
4430;SDS011;2228;48.140;11.488;2023-11-19T11:58:26;0.70;;;0.50;;
4430;SDS011;2228;48.140;11.488;2023-11-19T12:00:57;0.80;;;0.50;;
4430;SDS011;2228;48.140;11.488;2023-11-19T12:03:28;0.80;;;0.50;;
4430;SDS011;2228;48.140;11.488;2023-11-19T12:05:56;1.00;;;0.60;;
4430;SDS011;2228;48.140;11.488;2023-11-19T12:08:25;0.85;;;0.57;;
4430;SDS011;2228;48.140;11.488;2023-11-19T12:10:53;0.70;;;0.50;;
4430;SDS011;2228;48.140;11.488;2023-11-19T12:13:24;1.80;;;0.60;;
4430;SDS011;2228;48.140;11.488;2023-11-19T12:16:09;1.10;;;0.50;;
4430;SDS011;2228;48.140;11.488;2023-11-19T12:18:38;1.00;;;0.60;;
4430;SDS011;2228;48.140;11.488;2023-11-19T12:21:07;1.20;;;0.70;;
4430;SDS011;2228;48.140;11.488;2023-11-19T12:23:43;1.05;;;0.73;;
4430;SDS011;2228;48.140;11.488;2023-11-19T12:26:33;1.20;;;0.90;;
4430;SDS011;2228;48.140;11.488;2023-11-19T12:29:01;0.90;;;0.60;;
4430;SDS011;2228;48.140;11.488;2023-11-19T12:31:32;1.00;;;0.70;;
4430;SDS011;2228;48.140;11.488;2023-11-19T12:34:05;1.00;;;0.50;;
4430;SDS011;2228;48.140;11.488;2023-11-19T12:36:36;0.90;;;0.67;;
4430;SDS011;2228;48.140;11.488;2023-11-19T12:39:04;0.77;;;0.50;;
4430;SDS011;2228;48.140;11.488;2023-11-19T12:41:33;1.05;;;0.60;;
4430;SDS011;2228;48.140;11.488;2023-11-19T12:44:15;1.40;;;0.52;;
4430;SDS011;2228;48.140;11.488;2023-11-19T12:46:43;1.80;;;0.50;;
4430;SDS011;2228;48.140;11.488;2023-11-19T12:49:11;0.98;;;0.50;;
4430;SDS011;2228;48.140;11.488;2023-11-19T12:51:39;1.00;;;0.50;;
4430;SDS011;2228;48.140;11.488;2023-11-19T12:54:06;0.73;;;0.50;;
4430;SDS011;2228;48.140;11.488;2023-11-19T12:56:34;0.70;;;0.50;;
4430;SDS011;2228;48.140;11.488;2023-11-19T12:59:12;1.30;;;0.50;;
4430;SDS011;2228;48.140;11.488;2023-11-19T13:01:39;2.60;;;0.63;;
4430;SDS011;2228;48.140;11.488;2023-11-19T13:04:17;0.90;;;0.57;;
4430;SDS011;2228;48.140;11.488;2023-11-19T13:06:44;0.70;;;0.50;;
4430;SDS011;2228;48.140;11.488;2023-11-19T13:09:21;0.70;;;0.50;;
4430;SDS011;2228;48.140;11.488;2023-11-19T13:11:49;1.27;;;0.60;;
4430;SDS011;2228;48.140;11.488;2023-11-19T13:14:17;1.00;;;0.50;;
4430;SDS011;2228;48.140;11.488;2023-11-19T13:16:45;1.00;;;0.50;;
4430;SDS011;2228;48.140;11.488;2023-11-19T13:19:13;0.98;;;0.63;;
4430;SDS011;2228;48.140;11.488;2023-11-19T13:21:41;0.70;;;0.60;;
4430;SDS011;2228;48.140;11.488;2023-11-19T13:24:11;0.80;;;0.60;;
4430;SDS011;2228;48.140;11.488;2023-11-19T13:26:38;0.70;;;0.50;;
4430;SDS011;2228;48.140;11.488;2023-11-19T13:29:06;1.85;;;0.70;;
4430;SDS011;2228;48.140;11.488;2023-11-19T13:31:35;0.80;;;0.60;;
4430;SDS011;2228;48.140;11.488;2023-11-19T13:34:02;0.80;;;0.60;;
4430;SDS011;2228;48.140;11.488;2023-11-19T13:36:32;1.10;;;0.60;;
4430;SDS011;2228;48.140;11.488;2023-11-19T13:38:59;1.30;;;0.50;;
4430;SDS011;2228;48.140;11.488;2023-11-19T13:41:26;1.00;;;0.70;;
4430;SDS011;2228;48.140;11.488;2023-11-19T13:43:53;0.70;;;0.60;;
4430;SDS011;2228;48.140;11.488;2023-11-19T13:46:22;1.30;;;0.60;;
4430;SDS011;2228;48.140;11.488;2023-11-19T13:48:49;2.40;;;0.60;;
4430;SDS011;2228;48.140;11.488;2023-11-19T13:51:16;2.30;;;0.70;;
4430;SDS011;2228;48.140;11.488;2023-11-19T13:53:43;0.70;;;0.50;;
4430;SDS011;2228;48.140;11.488;2023-11-19T13:56:10;1.23;;;0.70;;
4430;SDS011;2228;48.140;11.488;2023-11-19T13:58:37;4.70;;;0.70;;
4430;SDS011;2228;48.140;11.488;2023-11-19T14:01:05;1.40;;;0.60;;
4430;SDS011;2228;48.140;11.488;2023-11-19T14:03:33;1.00;;;0.60;;
4430;SDS011;2228;48.140;11.488;2023-11-19T14:06:00;0.80;;;0.70;;
4430;SDS011;2228;48.140;11.488;2023-11-19T14:08:28;0.88;;;0.57;;
4430;SDS011;2228;48.140;11.488;2023-11-19T14:10:55;0.80;;;0.60;;
4430;SDS011;2228;48.140;11.488;2023-11-19T14:13:22;0.90;;;0.50;;
4430;SDS011;2228;48.140;11.488;2023-11-19T14:15:49;1.30;;;0.60;;
4430;SDS011;2228;48.140;11.488;2023-11-19T14:18:16;2.50;;;0.60;;
4430;SDS011;2228;48.140;11.488;2023-11-19T14:20:45;1.70;;;0.50;;
4430;SDS011;2228;48.140;11.488;2023-11-19T14:23:12;0.80;;;0.60;;
4430;SDS011;2228;48.140;11.488;2023-11-19T14:25:39;1.80;;;0.70;;
4430;SDS011;2228;48.140;11.488;2023-11-19T14:28:06;0.80;;;0.60;;
4430;SDS011;2228;48.140;11.488;2023-11-19T14:30:33;1.10;;;0.60;;
4430;SDS011;2228;48.140;11.488;2023-11-19T14:33:00;1.90;;;0.60;;
4430;SDS011;2228;48.140;11.488;2023-11-19T14:35:28;1.90;;;0.60;;
4430;SDS011;2228;48.140;11.488;2023-11-19T14:37:59;0.80;;;0.50;;
4430;SDS011;2228;48.140;11.488;2023-11-19T14:40:29;0.80;;;0.60;;
4430;SDS011;2228;48.140;11.488;2023-11-19T14:42:56;0.90;;;0.60;;
4430;SDS011;2228;48.140;11.488;2023-11-19T14:45:23;1.60;;;0.60;;
4430;SDS011;2228;48.140;11.488;2023-11-19T14:47:51;0.80;;;0.60;;
4430;SDS011;2228;48.140;11.488;2023-11-19T14:50:19;1.30;;;0.60;;
4430;SDS011;2228;48.140;11.488;2023-11-19T14:52:46;0.88;;;0.60;;
4430;SDS011;2228;48.140;11.488;2023-11-19T14:55:14;1.90;;;1.30;;
4430;SDS011;2228;48.140;11.488;2023-11-19T14:57:41;1.70;;;0.60;;
4430;SDS011;2228;48.140;11.488;2023-11-19T15:00:09;0.90;;;0.70;;
4430;SDS011;2228;48.140;11.488;2023-11-19T15:02:39;1.20;;;0.70;;
4430;SDS011;2228;48.140;11.488;2023-11-19T15:05:07;1.00;;;0.60;;
4430;SDS011;2228;48.140;11.488;2023-11-19T15:07:35;0.80;;;0.60;;
4430;SDS011;2228;48.140;11.488;2023-11-19T15:10:03;1.40;;;0.77;;
4430;SDS011;2228;48.140;11.488;2023-11-19T15:12:36;0.80;;;0.60;;
4430;SDS011;2228;48.140;11.488;2023-11-19T15:15:05;0.90;;;0.60;;
4430;SDS011;2228;48.140;11.488;2023-11-19T15:17:34;5.00;;;0.70;;
4430;SDS011;2228;48.140;11.488;2023-11-19T15:20:02;2.10;;;0.70;;
4430;SDS011;2228;48.140;11.488;2023-11-19T15:22:30;1.30;;;0.68;;
4430;SDS011;2228;48.140;11.488;2023-11-19T15:24:57;1.80;;;0.80;;
4430;SDS011;2228;48.140;11.488;2023-11-19T15:27:24;1.10;;;0.70;;
4430;SDS011;2228;48.140;11.488;2023-11-19T15:29:51;0.77;;;0.52;;
4430;SDS011;2228;48.140;11.488;2023-11-19T15:32:18;1.30;;;0.70;;
4430;SDS011;2228;48.140;11.488;2023-11-19T15:34:48;4.63;;;3.50;;
4430;SDS011;2228;48.140;11.488;2023-11-19T15:37:15;0.97;;;0.70;;
4430;SDS011;2228;48.140;11.488;2023-11-19T15:39:42;1.05;;;0.80;;
4430;SDS011;2228;48.140;11.488;2023-11-19T15:42:09;0.82;;;0.70;;
4430;SDS011;2228;48.140;11.488;2023-11-19T15:44:37;1.10;;;0.90;;
4430;SDS011;2228;48.140;11.488;2023-11-19T15:47:06;2.00;;;1.50;;
4430;SDS011;2228;48.140;11.488;2023-11-19T15:49:33;1.30;;;0.80;;
4430;SDS011;2228;48.140;11.488;2023-11-19T15:51:59;2.90;;;0.90;;
4430;SDS011;2228;48.140;11.488;2023-11-19T15:54:26;9.20;;;5.73;;
4430;SDS011;2228;48.140;11.488;2023-11-19T15:56:53;3.55;;;1.90;;
4430;SDS011;2228;48.140;11.488;2023-11-19T15:59:20;2.67;;;1.92;;
4430;SDS011;2228;48.140;11.488;2023-11-19T16:01:47;4.05;;;2.30;;
4430;SDS011;2228;48.140;11.488;2023-11-19T16:04:16;5.20;;;3.28;;
4430;SDS011;2228;48.140;11.488;2023-11-19T16:06:43;3.97;;;2.17;;
4430;SDS011;2228;48.140;11.488;2023-11-19T16:09:10;2.42;;;1.42;;
4430;SDS011;2228;48.140;11.488;2023-11-19T16:11:40;2.20;;;1.00;;
4430;SDS011;2228;48.140;11.488;2023-11-19T16:14:09;1.10;;;0.90;;
4430;SDS011;2228;48.140;11.488;2023-11-19T16:16:37;1.70;;;0.80;;
4430;SDS011;2228;48.140;11.488;2023-11-19T16:19:04;1.70;;;0.70;;
4430;SDS011;2228;48.140;11.488;2023-11-19T16:21:33;1.63;;;0.93;;
4430;SDS011;2228;48.140;11.488;2023-11-19T16:24:01;1.30;;;0.70;;
4430;SDS011;2228;48.140;11.488;2023-11-19T16:26:30;1.30;;;0.70;;
4430;SDS011;2228;48.140;11.488;2023-11-19T16:29:04;3.50;;;0.80;;
4430;SDS011;2228;48.140;11.488;2023-11-19T16:31:31;2.08;;;0.85;;
4430;SDS011;2228;48.140;11.488;2023-11-19T16:33:58;1.45;;;0.90;;
4430;SDS011;2228;48.140;11.488;2023-11-19T16:36:27;1.85;;;0.80;;